HETR

Details ICAO HETR (ELT)
Name EL TOR
Region Egypt
Timezone Africa/Cairo (UTC+2.0)
Plans Departing 8
Arriving 17
Stats Elevation 115 ft / 35 m (AMSL)
Location 28.208982° 33.645505°
Runways 1
Magnetic Variation 4.299° E
Sunrise 2017-12-18 04:32:46 UTC / 2017-12-18 06:32:46 Local
Sunset 2017-12-18 14:53:54 UTC / 2017-12-18 16:53:54 Local
Advertisement - Login to hide

Runways

ID Width Length Bearing (true) Bearing (mag) Surface Threshold Offset Overrun Length
10 148 ft / 45 m 9,831 ft / 2,996 m 104.27° 99.97° Asphalt 0 ft / 0 m 210 ft / 64 m
28 148 ft / 45 m 9,831 ft / 2,996 m 284.28° 279.98° Asphalt 0 ft / 0 m 210 ft / 64 m

Map

Weather


0- 5 10 15 20 25 30 35+ Temperature / ° C

Clouds and Precipitation
Forecast for 2017-12-18 06:00 UTC. Updated a minute ago

Ground ~20,000 ft ~40,000 ft Winds

METAR

HETR 180300Z 36005KT CAVOK 13/07 Q1019

TAF

Not found

Frequencies

Ground 121.90 MHz GND
Tower 121.30 MHz TWR
Warning: Do not use this data for real-world aviation or navigation. No guarantee of current accuracy is given.